Tropical Cyclones
[Index]
Main Index Home Page Stock Weather Photos Extreme Storms Discussion Storm News and Storm Chasing Reports Tropical Cyclones / Hurricanes / Typhoons Weather Data and Links Wild Fires / Bushfires Weather Observation Techniques Weather Picture Catalogue Tornado Pictures and Reports Stock Video Footage and DVDs for sale
Season 2005-2006 Tropical Cyclone 200612 Track Map
Season 2005-2006 Summaries: [BoM-AU] [JTWC-AU] [JTWC-SIO] [JTWC-SPAC] [JTWC-SH]
<<- Previous TC | JTWC 2005-2006 Season | Next TC ->>

click for intensity scale information  Lat/long Grid: Show Hide

 Date Labels: Show Hide

Joint Typhoon Warning Centre Cyclone Data

Name: 200612

18 Feb 2006 00:00 UTC to 23 Feb 2006 18:00 UTC

    date/time    lat    long     hPa   cat  kts
2006-02-18 00   16.4    51.2    1006         15          
2006-02-18 06   16.3    51.9    1004         20          
2006-02-18 12   16.4    52.7    1004         20          
2006-02-18 18   16.7    53.5    1004         25          
2006-02-19 00   17.1    54.5    1000         30          
2006-02-19 06   17.9    55.3     996         35          
2006-02-19 12   18.4    56.1     997         35          
2006-02-19 18   18.9    56.8     991    1    45          
2006-02-20 00   19.3    57.4     991    1    45          
2006-02-20 06   19.4    57.8     994    1    40          
2006-02-20 12   19.4    58.2     997         35          
2006-02-20 18   19.1    57.9    1002         25          
2006-02-21 00   18.8    57.6    1002         25          
2006-02-21 06   18.7    57.2    1002         25          
2006-02-21 12   18.6    56.7    1002         25          
2006-02-21 18   18.4    55.9    1002         25          
2006-02-22 00   18.0    54.9    1002         25          
2006-02-22 06   17.6    53.7    1002         25          
2006-02-22 12   16.9    52.7    1002         25          
2006-02-22 18   16.1    51.9    1002         25          
2006-02-23 00   15.9    51.2    1002         25          
2006-02-23 06   16.0    50.8    1002         25          
2006-02-23 12   16.3    50.7    1002         25          
2006-02-23 18   16.6    50.6    1002         25          
Winds are 1-min average.

Tropical cyclone tracks developed by Michael Bath using data from the Joint Typhoon Warning Centre Best Tracks and Google Maps.


[Australian Severe Weather index] [Copyright Notice] [Email Contacts] [Search This Site] [Privacy Policy]
Document: tropical_cyclone_200612.htm Updated: 28 June 2017